Time;durP1;ratioP1;P1;durP2;ratioP2;P2;SDS_P1;SDS_P2;PMS_P1;PMS_P2;Temp;Humidity;BMP_temperature;BMP_pressure;BME280_temperature;BME280_humidity;BME280_pressure;Samples;Min_cycle;Max_cycle;Signal;HPM_P1;HPM_P2
2021/07/04 00:01:47;;;;;;;;;7.00;6.25;;;;;22.15;100.00;100946.38;5026366;28;45652;-77
2021/07/04 00:04:12;;;;;;;;;7.25;7.25;;;;;22.07;100.00;100930.03;5023899;28;45387;-77
2021/07/04 00:06:38;;;;;;;;;7.00;7.00;;;;;22.10;100.00;100931.63;5037521;28;45332;-74
2021/07/04 00:09:03;;;;;;;;;8.00;7.50;;;;;22.03;100.00;100917.81;5037617;28;45266;-75
2021/07/04 00:11:29;;;;;;;;;7.50;6.25;;;;;22.10;100.00;100931.63;5038358;28;45465;-76
2021/07/04 00:13:55;;;;;;;;;9.75;9.00;;;;;22.04;100.00;100927.53;5037559;28;45362;-76
2021/07/04 00:16:20;;;;;;;;;7.50;6.75;;;;;22.01;100.00;100930.34;5035743;28;45532;-75
2021/07/04 00:18:46;;;;;;;;;8.00;7.00;;;;;21.97;100.00;100921.72;5036278;28;45547;-76
2021/07/04 00:21:11;;;;;;;;;7.00;6.00;;;;;21.98;100.00;100927.88;5037683;28;45437;-75
2021/07/04 00:23:37;;;;;;;;;7.75;7.25;;;;;22.01;100.00;100923.22;5028649;28;46011;-75
2021/07/04 00:26:04;;;;;;;;;7.00;6.00;;;;;21.95;100.00;100914.75;5037617;28;45385;-76
2021/07/04 00:28:30;;;;;;;;;8.25;7.00;;;;;21.97;100.00;100912.88;5037937;28;45373;-76
2021/07/04 00:30:56;;;;;;;;;9.50;7.00;;;;;22.02;100.00;100924.09;5036036;28;45691;-75
2021/07/04 00:33:21;;;;;;;;;11.00;10.00;;;;;21.95;100.00;100907.66;5037144;28;45503;-75
2021/07/04 00:35:47;;;;;;;;;11.50;11.00;;;;;21.95;100.00;100912.97;5036155;28;45564;-76
2021/07/04 00:38:13;;;;;;;;;9.00;9.00;;;;;21.95;100.00;100904.09;5029720;28;45852;-76
2021/07/04 00:40:40;;;;;;;;;8.75;8.75;;;;;21.87;100.00;100885.97;5037884;28;45589;-76
2021/07/04 00:43:07;;;;;;;;;9.25;8.00;;;;;21.94;100.00;100908.56;5037661;28;45428;-76
2021/07/04 00:45:33;;;;;;;;;8.00;7.00;;;;;21.90;100.00;100904.38;5037145;28;45935;-75
2021/07/04 00:47:59;;;;;;;;;11.00;8.75;;;;;21.85;100.00;100887.00;5037269;28;45764;-76
2021/07/04 00:50:27;;;;;;;;;7.75;7.75;;;;;21.86;100.00;100899.34;5036262;28;45414;-76
2021/07/04 00:52:54;;;;;;;;;9.50;8.00;;;;;21.85;100.00;100903.81;5036921;28;46683;-76
2021/07/04 00:55:20;;;;;;;;;9.00;8.25;;;;;21.81;100.00;100885.47;5035819;28;45720;-76
2021/07/04 00:57:46;;;;;;;;;8.00;7.00;;;;;21.78;100.00;100893.63;5028316;28;45425;-75
2021/07/04 01:00:20;;;;;;;;;8.00;7.25;;;;;21.76;100.00;100887.56;5021269;28;45408;-76
2021/07/04 01:02:46;;;;;;;;;8.50;7.50;;;;;21.73;100.00;100877.97;5032977;28;45417;-75
2021/07/04 01:05:14;;;;;;;;;8.00;8.00;;;;;21.77;100.00;100898.09;5037276;28;45389;-76
2021/07/04 01:07:41;;;;;;;;;8.00;7.25;;;;;21.77;100.00;100891.91;5037024;28;45431;-76
2021/07/04 01:10:08;;;;;;;;;7.00;6.00;;;;;21.76;100.00;100888.41;5037582;28;45454;-75
2021/07/04 01:12:35;;;;;;;;;8.00;7.50;;;;;21.74;100.00;100884.97;5036418;28;47353;-76
2021/07/04 01:15:02;;;;;;;;;8.25;8.00;;;;;21.74;100.00;100884.97;5036353;28;45736;-76
2021/07/04 01:17:27;;;;;;;;;9.75;8.00;;;;;21.70;100.00;100881.63;5036438;28;45380;-75
2021/07/04 01:19:53;;;;;;;;;7.75;7.75;;;;;21.69;100.00;100874.59;5037268;28;45437;-76
2021/07/04 01:22:22;;;;;;;;;8.25;8.25;;;;;21.64;100.00;100868.69;5036431;28;46251;-75
2021/07/04 01:24:47;;;;;;;;;6.50;6.50;;;;;21.68;100.00;100872.03;5022404;28;45437;-75
2021/07/04 01:27:13;;;;;;;;;8.75;8.75;;;;;21.67;100.00;100871.16;5037322;28;45637;-75
2021/07/04 01:29:38;;;;;;;;;9.25;7.75;;;;;21.66;100.00;100872.13;5032679;28;45356;-75
2021/07/04 01:32:04;;;;;;;;;9.25;8.00;;;;;21.60;100.00;100868.97;5036567;28;45415;-76
2021/07/04 01:34:30;;;;;;;;;8.00;8.00;;;;;21.60;100.00;100872.47;5036070;28;45329;-78
2021/07/04 01:36:55;;;;;;;;;9.75;9.75;;;;;21.60;100.00;100880.47;5035574;28;45315;-76
2021/07/04 01:39:21;;;;;;;;;9.75;8.75;;;;;21.57;100.00;100874.47;5036631;28;45434;-75
2021/07/04 01:41:47;;;;;;;;;10.50;10.00;;;;;21.51;100.00;100872.19;5036331;28;45425;-75
2021/07/04 01:44:12;;;;;;;;;11.25;9.00;;;;;21.54;100.00;100875.50;5034736;28;45422;-75
2021/07/04 01:46:37;;;;;;;;;9.00;8.50;;;;;21.55;100.00;100884.34;5036601;28;45683;-76
2021/07/04 01:49:03;;;;;;;;;11.00;8.25;;;;;21.53;100.00;100884.41;5036337;28;45400;-76
2021/07/04 01:51:28;;;;;;;;;9.25;9.00;;;;;21.43;100.00;100861.97;5036522;28;46421;-76
2021/07/04 01:53:54;;;;;;;;;8.25;8.25;;;;;21.47;100.00;100870.59;5035792;28;45391;-75
2021/07/04 01:56:19;;;;;;;;;9.50;8.00;;;;;21.45;100.00;100868.03;5050011;28;45882;-76
2021/07/04 01:58:45;;;;;;;;;9.00;8.00;;;;;21.47;100.00;100878.59;5056721;28;45372;-76
2021/07/04 02:01:10;;;;;;;;;8.25;8.25;;;;;21.44;100.00;100878.75;5034251;28;47914;-76
2021/07/04 02:03:36;;;;;;;;;9.00;9.00;;;;;21.40;100.00;100872.78;5045414;28;45480;-76
2021/07/04 02:06:02;;;;;;;;;11.00;10.50;;;;;21.33;100.00;100868.75;5056012;28;45410;-75
2021/07/04 02:08:27;;;;;;;;;9.00;9.00;;;;;21.36;100.00;100871.25;5056419;28;45512;-75
2021/07/04 02:10:53;;;;;;;;;19.75;16.00;;;;;21.38;100.00;100887.94;5056203;28;46262;-76
2021/07/04 02:13:18;;;;;;;;;16.00;13.00;;;;;21.36;100.00;100881.88;5050398;28;45340;-77
2021/07/04 02:15:44;;;;;;;;;20.75;18.00;;;;;21.20;100.00;100849.09;5048382;28;45474;-76
2021/07/04 02:18:15;;;;;;;;;16.25;16.00;;;;;21.40;100.00;100880.75;5055984;28;45554;-76
2021/07/04 02:20:47;;;;;;;;;15.00;13.75;;;;;21.41;100.00;100874.47;5055451;28;45662;-76
2021/07/04 02:23:18;;;;;;;;;14.75;12.75;;;;;21.34;100.00;100855.38;5055281;28;45636;-76
2021/07/04 02:25:45;;;;;;;;;15.50;13.75;;;;;21.40;100.00;100868.31;5055559;28;45400;-77
2021/07/04 02:28:13;;;;;;;;;14.50;12.00;;;;;21.43;100.00;100877.91;5056015;28;45370;-76
2021/07/04 02:30:40;;;;;;;;;12.75;11.75;;;;;21.42;100.00;100870.88;5055539;28;45543;-76
2021/07/04 02:33:07;;;;;;;;;12.75;11.00;;;;;21.35;100.00;100856.25;5055612;28;45587;-76
2021/07/04 02:35:35;;;;;;;;;12.50;9.75;;;;;21.36;100.00;100861.47;5055756;28;45425;-76
2021/07/04 02:38:01;;;;;;;;;10.75;9.00;;;;;21.37;100.00;100855.22;5055359;28;45361;-77
2021/07/04 02:40:28;;;;;;;;;11.00;10.25;;;;;21.31;100.00;100852.91;5055876;28;45464;-76
2021/07/04 02:42:55;;;;;;;;;12.50;12.00;;;;;21.40;100.00;100870.13;5055554;28;45420;-76
2021/07/04 02:45:20;;;;;;;;;11.00;10.00;;;;;21.37;100.00;100868.50;5055891;28;45439;-77
2021/07/04 02:47:46;;;;;;;;;12.50;10.50;;;;;21.32;100.00;100862.59;5037258;28;45639;-77
2021/07/04 02:50:12;;;;;;;;;11.75;10.25;;;;;21.35;100.00;100869.53;5055012;28;45729;-77
2021/07/04 02:52:38;;;;;;;;;9.50;9.25;;;;;21.30;100.00;100861.81;5055656;28;45334;-77
2021/07/04 02:55:05;;;;;;;;;12.00;11.50;;;;;21.32;100.00;100864.41;5054866;28;45325;-75
2021/07/04 02:57:30;;;;;;;;;11.50;11.00;;;;;21.31;100.00;100868.00;5055941;28;45440;-77
2021/07/04 02:59:56;;;;;;;;;11.00;11.00;;;;;21.31;100.00;100860.03;5050530;28;45427;-76
2021/07/04 03:02:21;;;;;;;;;11.75;11.75;;;;;21.23;100.00;100843.63;5055586;28;45503;-76
2021/07/04 03:04:49;;;;;;;;;12.00;11.50;;;;;21.32;100.00;100859.09;5054794;28;45710;-76
2021/07/04 03:07:14;;;;;;;;;12.00;10.00;;;;;21.28;100.00;100849.59;5055643;28;45266;-77
2021/07/04 03:09:40;;;;;;;;;12.50;11.50;;;;;21.26;100.00;100848.78;5058083;28;46471;-77
2021/07/04 03:12:06;;;;;;;;;12.00;11.50;;;;;21.27;100.00;100855.81;5040690;28;45472;-76
2021/07/04 03:14:33;;;;;;;;;13.00;12.25;;;;;21.24;100.00;100855.97;5033293;28;45310;-77
2021/07/04 03:16:58;;;;;;;;;9.25;9.00;;;;;21.21;100.00;100867.59;5058531;28;45475;-77
2021/07/04 03:19:24;;;;;;;;;10.00;9.75;;;;;21.08;100.00;100858.63;5058070;28;46140;-76
2021/07/04 03:21:49;;;;;;;;;10.00;9.00;;;;;21.03;100.00;100856.22;5040259;28;45476;-76
2021/07/04 03:24:14;;;;;;;;;11.75;10.75;;;;;20.97;100.00;100848.59;5058347;28;45509;-76
2021/07/04 03:26:40;;;;;;;;;9.25;8.25;;;;;20.90;100.00;100847.25;5058787;28;45692;-76
2021/07/04 03:29:05;;;;;;;;;8.75;8.50;;;;;20.86;100.00;100839.53;5058231;28;46526;-76
2021/07/04 03:31:31;;;;;;;;;8.25;8.25;;;;;20.83;100.00;100837.91;5058645;28;45435;-77
2021/07/04 03:33:57;;;;;;;;;9.50;8.50;;;;;20.78;100.00;100829.31;5040610;28;45639;-77
2021/07/04 03:36:22;;;;;;;;;7.25;7.00;;;;;20.82;100.00;100828.25;5058477;28;45528;-76
2021/07/04 03:38:47;;;;;;;;;10.00;9.00;;;;;20.82;100.00;100822.03;5058619;28;45487;-77
2021/07/04 03:41:13;;;;;;;;;8.50;7.25;;;;;20.75;100.00;100814.44;5057699;28;45570;-77
2021/07/04 03:43:38;;;;;;;;;10.25;9.25;;;;;20.80;100.00;100827.44;5057971;28;45354;-77
2021/07/04 03:46:03;;;;;;;;;8.50;8.50;;;;;20.78;100.00;100829.31;5058770;28;45500;-77
2021/07/04 03:48:29;;;;;;;;;10.00;9.75;;;;;20.77;100.00;100832.91;5058210;28;46338;-77
2021/07/04 03:50:54;;;;;;;;;8.25;7.50;;;;;20.78;100.00;100845.25;5040381;28;45520;-77
2021/07/04 03:53:20;;;;;;;;;8.25;8.25;;;;;20.76;100.00;100836.50;5040161;28;45827;-77
2021/07/04 03:55:45;;;;;;;;;9.50;9.00;;;;;20.77;100.00;100832.91;5058343;28;45451;-77
2021/07/04 03:58:11;;;;;;;;;6.50;5.75;;;;;20.66;100.00;100811.44;5039192;28;47977;-77
2021/07/04 04:00:36;;;;;;;;;10.25;9.50;;;;;20.75;100.00;100834.81;5057478;28;45456;-76
2021/07/04 04:03:02;;;;;;;;;9.25;9.00;;;;;20.73;100.00;100826.06;5058384;28;45348;-77
2021/07/04 04:05:27;;;;;;;;;7.75;7.75;;;;;20.72;100.00;100832.31;5057903;28;45301;-76
2021/07/04 04:07:53;;;;;;;;;10.50;9.50;;;;;20.78;100.00;100839.94;5058279;28;45330;-76
2021/07/04 04:10:18;;;;;;;;;9.00;8.00;;;;;20.79;100.00;100844.31;5057791;28;45444;-76
2021/07/04 04:12:44;;;;;;;;;9.75;9.75;;;;;20.78;100.00;100831.97;5057978;28;45271;-76
2021/07/04 04:15:11;;;;;;;;;7.75;7.00;;;;;20.80;100.00;100843.34;5040001;28;45411;-77
2021/07/04 04:17:38;;;;;;;;;6.50;6.50;;;;;20.81;100.00;100837.13;5057401;28;47005;-77
2021/07/04 04:20:06;;;;;;;;;8.00;8.00;;;;;20.81;100.00;100837.13;5052352;28;45587;-77
2021/07/04 04:22:32;;;;;;;;;6.75;6.00;;;;;20.76;100.00;100832.06;5057448;28;45563;-77
2021/07/04 04:24:57;;;;;;;;;6.00;6.00;;;;;20.78;100.00;100826.66;5057662;28;45377;-76
2021/07/04 04:27:22;;;;;;;;;6.00;6.00;;;;;20.79;100.00;100831.88;5057364;28;45386;-75
2021/07/04 04:29:48;;;;;;;;;6.00;6.00;;;;;20.83;100.00;100837.91;5038789;28;45620;-74
2021/07/04 04:32:14;;;;;;;;;5.00;4.50;;;;;20.79;100.00;100831.88;5057504;28;45456;-77
2021/07/04 04:34:39;;;;;;;;;5.25;4.50;;;;;20.87;100.00;100842.09;5044196;28;45512;-76
2021/07/04 04:37:05;;;;;;;;;5.50;5.50;;;;;20.89;100.00;100839.38;5039172;28;47227;-76
2021/07/04 04:39:32;;;;;;;;;4.50;4.50;;;;;20.93;100.00;100840.91;5051726;28;45554;-76
2021/07/04 04:41:57;;;;;;;;;4.50;4.50;;;;;20.97;100.00;100837.13;5046202;28;45417;-74
2021/07/04 04:44:23;;;;;;;;;6.25;5.50;;;;;20.98;100.00;100831.72;5047704;28;45606;-75
2021/07/04 04:46:48;;;;;;;;;5.50;4.75;;;;;21.02;100.00;100827.09;5049731;28;46170;-75
2021/07/04 04:49:14;;;;;;;;;4.00;4.00;;;;;21.03;100.00;100832.31;5032649;28;45513;-75
2021/07/04 04:51:40;;;;;;;;;5.00;5.00;;;;;21.09;100.00;100825.84;5031558;28;45484;-75
2021/07/04 04:54:07;;;;;;;;;8.00;5.25;;;;;20.97;100.00;100807.94;5054259;28;45455;-75
2021/07/04 04:56:33;;;;;;;;;5.00;5.00;;;;;21.16;100.00;100842.25;5050096;28;45613;-75
2021/07/04 04:58:59;;;;;;;;;5.50;4.50;;;;;21.18;100.00;100841.22;5054074;28;45304;-75
2021/07/04 05:01:29;;;;;;;;;4.75;4.75;;;;;21.19;100.00;100845.59;5056710;28;45421;-75
2021/07/04 05:03:55;;;;;;;;;6.50;4.75;;;;;21.22;100.00;100844.56;5056347;28;45552;-75
2021/07/04 05:06:21;;;;;;;;;5.00;5.00;;;;;21.14;100.00;100836.19;5046472;28;45524;-75
2021/07/04 05:08:46;;;;;;;;;4.50;3.50;;;;;21.14;100.00;100844.16;5057119;28;45417;-77
2021/07/04 05:11:11;;;;;;;;;6.00;4.75;;;;;21.07;100.00;100841.00;5049475;28;45263;-76
2021/07/04 05:13:37;;;;;;;;;5.00;4.75;;;;;21.10;100.00;100852.28;5042546;28;45369;-76
2021/07/04 05:16:05;;;;;;;;;4.50;4.50;;;;;21.01;100.00;100844.81;5038165;28;47564;-76
2021/07/04 05:18:31;;;;;;;;;4.00;4.00;;;;;21.00;100.00;100848.44;5054458;28;45250;-77
2021/07/04 05:20:56;;;;;;;;;3.50;3.50;;;;;20.88;100.00;100837.66;5047858;28;45346;-77
2021/07/04 05:23:21;;;;;;;;;5.00;4.75;;;;;20.87;100.00;100847.41;5055463;28;45401;-76
2021/07/04 05:25:49;;;;;;;;;4.00;2.75;;;;;20.82;100.00;100848.59;5052856;28;46456;-76
2021/07/04 05:28:15;;;;;;;;;4.00;3.00;;;;;20.74;100.00;100841.06;5047414;28;45430;-76
2021/07/04 05:30:40;;;;;;;;;4.25;4.00;;;;;20.73;100.00;100847.31;5049832;28;45424;-76
2021/07/04 05:33:06;;;;;;;;;4.50;3.75;;;;;20.69;100.00;100843.09;5036925;28;45511;-76
2021/07/04 05:35:31;;;;;;;;;4.00;4.00;;;;;20.61;100.00;100829.41;5031310;28;48110;-76
2021/07/04 05:37:58;;;;;;;;;6.25;5.00;;;;;20.56;100.00;100821.69;5056506;28;45598;-75
2021/07/04 05:40:23;;;;;;;;;5.75;5.00;;;;;20.59;100.00;100825.97;5056998;28;45402;-75
2021/07/04 05:42:51;;;;;;;;;4.00;4.00;;;;;20.50;100.00;100806.09;5056709;28;45453;-76
2021/07/04 05:45:22;;;;;;;;;4.00;3.75;;;;;20.56;100.00;100816.38;5028788;28;48697;-75
2021/07/04 05:47:47;;;;;;;;;4.50;3.50;;;;;20.63;100.00;100825.72;5050048;28;45357;-75
2021/07/04 05:50:13;;;;;;;;;4.00;4.00;;;;;20.62;100.00;100817.88;5047886;28;45390;-76
2021/07/04 05:52:38;;;;;;;;;4.00;4.00;;;;;20.62;100.00;100820.50;5056635;28;45379;-78
2021/07/04 05:55:04;;;;;;;;;3.25;2.50;;;;;20.63;100.00;100827.53;5041866;28;46332;-76
2021/07/04 05:57:30;;;;;;;;;4.00;3.00;;;;;20.55;100.00;100819.97;5037969;28;45334;-76
2021/07/04 05:59:55;;;;;;;;;3.25;3.25;;;;;20.55;100.00;100833.22;5020204;28;45299;-76
2021/07/04 06:02:21;;;;;;;;;5.75;3.25;;;;;20.49;100.00;100822.97;5046568;28;45327;-77
2021/07/04 06:04:46;;;;;;;;;3.25;3.25;;;;;20.49;100.00;100822.97;5056025;28;45358;-76
2021/07/04 06:07:12;;;;;;;;;3.00;3.00;;;;;20.51;100.00;100822.88;5055632;28;45420;-76
2021/07/04 06:09:37;;;;;;;;;3.75;3.00;;;;;20.56;100.00;100834.09;5055857;28;45628;-76
2021/07/04 06:12:02;;;;;;;;;3.25;2.50;;;;;20.55;100.00;100840.34;5056358;28;45453;-74
2021/07/04 06:14:28;;;;;;;;;2.50;2.25;;;;;20.55;100.00;100840.34;5047945;28;47710;-75
2021/07/04 06:16:53;;;;;;;;;3.25;3.25;;;;;20.54;100.00;100838.63;5055770;28;45397;-75
2021/07/04 06:19:19;;;;;;;;;3.75;3.00;;;;;20.55;100.00;100841.19;5050354;28;45778;-76
2021/07/04 06:21:44;;;;;;;;;4.50;3.75;;;;;20.50;100.00;100819.38;5052088;28;45339;-75
2021/07/04 06:24:10;;;;;;;;;2.00;2.00;;;;;20.65;100.00;100852.19;5045747;28;45381;-75
2021/07/04 06:26:35;;;;;;;;;4.25;4.00;;;;;20.66;100.00;100837.97;5055874;28;45408;-74
2021/07/04 06:29:01;;;;;;;;;2.50;2.50;;;;;20.66;100.00;100836.19;5055819;28;45380;-76
2021/07/04 06:31:28;;;;;;;;;3.00;3.00;;;;;20.72;100.00;100837.63;5055504;28;45404;-76
2021/07/04 06:33:57;;;;;;;;;3.00;3.00;;;;;20.78;100.00;100839.94;5041974;28;45458;-76
2021/07/04 06:36:27;;;;;;;;;3.50;3.50;;;;;20.80;100.00;100838.91;5042069;28;45497;-76
2021/07/04 06:38:53;;;;;;;;;3.00;3.00;;;;;20.88;100.00;100845.63;5055905;28;45311;-76
2021/07/04 06:41:18;;;;;;;;;5.50;2.75;;;;;20.85;100.00;100854.59;5055591;28;45195;-76
2021/07/04 06:43:44;;;;;;;;;2.75;2.75;;;;;20.80;100.00;100841.56;5058735;28;45377;-75
2021/07/04 06:46:09;;;;;;;;;4.00;4.00;;;;;20.85;100.00;100859.06;5059159;28;45397;-75
2021/07/04 06:48:37;;;;;;;;;3.25;2.50;;;;;20.77;100.00;100852.34;5059687;28;45446;-75
2021/07/04 06:51:02;;;;;;;;;3.00;3.00;;;;;20.69;100.00;100838.66;5045347;28;45392;-76
2021/07/04 06:53:27;;;;;;;;;3.25;3.00;;;;;20.58;100.00;100816.28;5056968;28;46859;-76
2021/07/04 06:55:53;;;;;;;;;5.00;5.00;;;;;20.75;100.00;100848.06;5057262;28;45408;-76
2021/07/04 06:58:18;;;;;;;;;5.00;4.00;;;;;20.71;100.00;100850.03;5058743;28;45345;-77
2021/07/04 07:00:44;;;;;;;;;3.50;3.00;;;;;20.67;100.00;100850.31;5057747;28;45556;-76
2021/07/04 07:03:09;;;;;;;;;5.75;3.00;;;;;20.61;100.00;100840.03;5037493;28;46628;-76
2021/07/04 07:05:35;;;;;;;;;3.50;2.50;;;;;20.61;100.00;100846.19;5059223;28;45360;-76
2021/07/04 07:08:00;;;;;;;;;4.50;4.00;;;;;20.57;100.00;100835.81;5058485;28;45335;-77
2021/07/04 07:10:25;;;;;;;;;4.25;4.00;;;;;20.69;100.00;100838.66;5058459;28;45616;-76
2021/07/04 07:12:51;;;;;;;;;3.50;3.25;;;;;20.79;100.00;100833.69;5057115;28;46354;-75
2021/07/04 07:15:16;;;;;;;;;3.50;3.50;;;;;20.91;100.00;100835.69;5055856;28;45548;-75
2021/07/04 07:17:42;;;;;;;;;2.50;2.50;;;;;20.95;100.00;100836.34;5058819;28;45541;-75
2021/07/04 07:20:08;;;;;;;;;4.50;4.00;;;;;20.98;100.00;100839.69;5056000;28;45389;-75
2021/07/04 07:22:34;;;;;;;;;3.50;3.00;;;;;20.93;100.00;100836.44;5058588;28;46187;-75
2021/07/04 07:25:00;;;;;;;;;5.00;4.00;;;;;20.85;100.00;100822.75;5058395;28;45455;-76
2021/07/04 07:27:25;;;;;;;;;4.00;3.50;;;;;20.86;100.00;100835.09;5058815;28;45444;-75
2021/07/04 07:29:51;;;;;;;;;4.50;3.50;;;;;20.91;100.00;100835.69;5059336;28;45413;-75
2021/07/04 07:32:16;;;;;;;;;3.00;2.50;;;;;21.03;100.00;100840.28;5058297;28;46469;-77
2021/07/04 07:34:41;;;;;;;;;3.75;3.50;;;;;21.08;100.00;100834.75;5057879;28;45563;-76
2021/07/04 07:37:07;;;;;;;;;5.00;4.00;;;;;21.18;100.00;100848.34;5057663;28;45749;-76
2021/07/04 07:39:32;;;;;;;;;4.50;4.00;;;;;21.20;100.00;100849.97;5057702;28;45413;-76
2021/07/04 07:41:58;;;;;;;;;5.00;3.75;;;;;21.32;100.00;100838.69;5057728;28;46054;-76
2021/07/04 07:44:23;;;;;;;;;4.50;3.25;;;;;21.56;100.00;100848.84;5057106;28;45445;-76
2021/07/04 07:46:49;;;;;;;;;4.25;3.25;;;;;21.81;100.00;100856.22;5057732;28;45459;-75
2021/07/04 07:49:16;;;;;;;;;3.75;3.75;;;;;22.03;100.00;100859.31;5057539;28;45516;-75
2021/07/04 07:51:42;;;;;;;;;3.25;2.75;;;;;21.88;100.00;100834.50;5057020;28;45400;-76
2021/07/04 07:54:07;;;;;;;;;3.50;2.75;;;;;21.87;100.00;100838.09;5056837;28;45726;-75
2021/07/04 07:56:33;;;;;;;;;5.25;5.00;;;;;21.93;100.00;100855.47;5055346;28;45628;-76
2021/07/04 07:58:58;;;;;;;;;3.00;3.00;;;;;21.88;100.00;100841.63;5040355;28;45396;-75
2021/07/04 08:01:24;;;;;;;;;3.75;3.75;;;;;21.92;100.00;100848.47;5056961;28;46375;-74
2021/07/04 08:03:49;;;;;;;;;3.75;3.00;;;;;21.88;100.00;100855.75;5039076;28;45651;-76
2021/07/04 08:06:15;;;;;;;;;3.00;2.50;;;;;21.81;100.00;100856.22;5057085;28;45520;-76
2021/07/04 08:08:40;;;;;;;;;3.50;3.25;;;;;21.69;100.00;100858.66;5056868;28;45420;-76
2021/07/04 08:11:06;;;;;;;;;3.25;3.25;;;;;21.56;100.00;100852.34;5058263;28;46245;-76
2021/07/04 08:13:32;;;;;;;;;2.75;2.75;;;;;21.46;100.00;100848.50;5057384;28;45439;-75
2021/07/04 08:15:57;;;;;;;;;4.00;3.50;;;;;21.50;100.00;100858.03;5057421;28;45342;-75
2021/07/04 08:18:24;;;;;;;;;3.75;3.75;;;;;21.52;100.00;100863.25;5056195;28;45322;-75
2021/07/04 08:20:50;;;;;;;;;3.25;2.25;;;;;21.49;100.00;100842.16;5039043;28;46492;-75
2021/07/04 08:23:16;;;;;;;;;2.75;2.75;;;;;21.53;100.00;100835.75;5056054;28;45603;-75
2021/07/04 08:25:42;;;;;;;;;3.25;2.50;;;;;21.54;100.00;100840.97;5054114;28;45425;-77
2021/07/04 08:28:08;;;;;;;;;3.00;3.00;;;;;21.49;100.00;100836.84;5039850;28;45472;-75
2021/07/04 08:30:33;;;;;;;;;3.00;2.25;;;;;21.37;100.00;100830.44;5043218;28;46978;-75
2021/07/04 08:32:58;;;;;;;;;1.75;1.75;;;;;21.12;100.00;100814.19;5057630;28;45240;-76
2021/07/04 08:35:24;;;;;;;;;2.50;2.50;;;;;20.98;100.00;100821.09;5039319;28;45459;-77
2021/07/04 08:37:49;;;;;;;;;1.75;1.50;;;;;20.83;100.00;100816.69;5057747;28;45414;-76
2021/07/04 08:40:15;;;;;;;;;5.75;3.75;;;;;20.77;100.00;100833.78;5057651;28;47147;-77
2021/07/04 08:42:40;;;;;;;;;1.25;1.25;;;;;20.71;100.00;100830.63;5057417;28;45512;-76
2021/07/04 08:45:06;;;;;;;;;2.00;2.00;;;;;20.69;100.00;100820.09;5049997;28;45483;-77
2021/07/04 08:47:32;;;;;;;;;2.00;2.00;;;;;20.74;100.00;100835.75;5051824;28;45481;-76
2021/07/04 08:49:58;;;;;;;;;2.00;2.00;;;;;20.78;100.00;100821.34;5043102;28;46582;-76
2021/07/04 08:52:23;;;;;;;;;2.00;2.00;;;;;20.86;100.00;100816.50;5057585;28;45292;-77
2021/07/04 08:54:49;;;;;;;;;2.00;2.00;;;;;21.00;100.00;100816.56;5043033;28;45653;-77
2021/07/04 08:57:16;;;;;;;;;3.25;2.25;;;;;21.22;100.00;100834.78;5057286;28;45355;-76
2021/07/04 08:59:44;;;;;;;;;2.25;2.00;;;;;21.39;100.00;100825.91;5036958;28;47671;-76
2021/07/04 09:02:12;;;;;;;;;3.25;2.50;;;;;21.58;100.00;100831.88;5055214;28;45551;-76
2021/07/04 09:04:39;;;;;;;;;1.75;1.75;;;;;21.74;100.00;100833.63;5038264;28;45312;-77
2021/07/04 09:07:06;;;;;;;;;0.75;0.50;;;;;21.86;100.00;100830.22;5037277;28;45733;-76
2021/07/04 09:09:35;;;;;;;;;0.50;0.50;;;;;21.92;100.00;100825.38;5037394;28;46345;-76
2021/07/04 09:12:10;;;;;;;;;0.75;0.75;;;;;22.02;100.00;100834.53;5054142;28;45373;-76
2021/07/04 09:14:41;;;;;;;;;1.00;0.75;;;;;22.09;100.00;100824.41;5056991;28;45316;-75
2021/07/04 09:17:12;;;;;;;;;1.50;1.50;;;;;22.14;100.00;100806.34;5056943;28;45473;-76
2021/07/04 09:19:42;;;;;;;;;1.75;1.75;;;;;22.34;100.00;100817.59;5056868;28;45554;-77
2021/07/04 09:22:10;;;;;;;;;1.00;1.00;;;;;22.55;100.00;100816.25;5056710;28;45373;-77
2021/07/04 09:24:38;;;;;;;;;0.50;0.00;;;;;22.72;100.00;100828.50;5056042;28;45333;-76
2021/07/04 09:27:05;;;;;;;;;0.00;0.00;;;;;22.84;100.00;100822.41;5057077;28;45456;-77
2021/07/04 09:29:49;;;;;;;;;0.00;0.00;;;;;23.09;100.00;100829.69;5036523;28;46385;-79
2021/07/04 09:32:26;;;;;;;;;1.00;0.00;;;;;23.33;100.00;100816.56;5036388;28;45644;-78
2021/07/04 09:35:18;;;;;;;;;0.50;0.00;;;;;23.60;100.00;100820.09;5044041;28;45574;-78
2021/07/04 09:37:46;;;;;;;;;0.00;0.00;;;;;23.70;100.00;100804.31;5054853;28;45493;-79
2021/07/04 09:40:12;;;;;;;;;0.00;0.00;;;;;23.82;100.00;100811.50;5046996;28;46077;-79
2021/07/04 09:42:54;;;;;;;;;0.00;0.00;;;;;23.96;100.00;100806.03;5037883;28;45631;-77
2021/07/04 09:45:21;;;;;;;;;0.00;0.00;;;;;23.99;100.00;100794.31;5056278;28;45438;-77
2021/07/04 09:47:54;;;;;;;;;0.00;0.00;;;;;24.26;100.00;100795.06;5044749;28;45259;-78
2021/07/04 09:50:21;;;;;;;;;0.00;0.00;;;;;24.52;100.00;100801.25;5041918;28;46480;-77
2021/07/04 09:53:02;;;;;;;;;0.00;0.00;;;;;24.58;100.00;100789.28;5045160;28;45481;-78
2021/07/04 09:55:29;;;;;;;;;0.25;0.25;;;;;24.84;100.00;100782.91;5018765;28;45642;-78
2021/07/04 09:58:03;;;;;;;;;1.00;0.00;;;;;25.23;100.00;100781.81;5034536;28;45396;-78
2021/07/04 10:00:31;;;;;;;;;0.25;0.25;;;;;25.75;100.00;100791.25;5019245;28;48460;-79
2021/07/04 10:03:16;;;;;;;;;0.25;0.25;;;;;26.47;100.00;100778.44;5034489;28;45505;-80
2021/07/04 10:05:50;;;;;;;;;0.00;0.00;;;;;27.18;100.00;100776.25;5025181;28;45551;-77
2021/07/04 10:08:21;;;;;;;;;0.75;0.75;;;;;27.30;100.00;100777.91;5030008;28;45462;-79
2021/07/04 10:10:47;;;;;;;;;2.50;2.00;;;;;27.06;100.00;100779.94;5021274;28;46116;-78
2021/07/04 10:13:13;;;;;;;;;1.25;1.00;;;;;26.62;100.00;100764.78;5035586;28;45495;-77
2021/07/04 10:15:42;;;;;;;;;1.00;1.00;;;;;26.28;100.00;100780.03;5024476;28;45426;-77
2021/07/04 10:18:09;;;;;;;;;1.50;1.50;;;;;25.88;100.00;100777.78;5032112;28;45556;-78
2021/07/04 10:20:36;;;;;;;;;1.00;1.00;;;;;25.72;100.00;100771.91;5026210;28;46624;-81
2021/07/04 10:23:05;;;;;;;;;1.25;1.25;;;;;25.75;100.00;100769.84;5026291;28;45390;-79
2021/07/04 10:25:30;;;;;;;;;1.25;1.00;;;;;25.79;100.00;100760.59;5031974;28;45342;-79
2021/07/04 10:27:57;;;;;;;;;2.00;1.00;;;;;26.25;100.00;100773.06;5029000;28;45325;-78
2021/07/04 10:30:23;;;;;;;;;0.50;0.50;;;;;27.45;100.00;100767.72;5022551;28;45447;-79
2021/07/04 10:33:14;;;;;;;;;1.00;1.00;;;;;28.75;100.00;100759.09;5029629;28;45354;-78
2021/07/04 10:35:50;;;;;;;;;0.00;0.00;;;;;29.77;100.00;100765.78;5032062;28;45421;-80
2021/07/04 10:38:15;;;;;;;;;0.00;0.00;;;;;30.09;100.00;100757.34;5025131;28;45600;-78
2021/07/04 10:40:41;;;;;;;;;0.25;0.00;;;;;30.26;100.00;100756.56;5034426;28;47034;-78
2021/07/04 10:43:07;;;;;;;;;1.00;0.00;;;;;30.35;100.00;100753.00;5029954;28;45349;-78
2021/07/04 10:45:38;;;;;;;;;2.50;2.50;;;;;29.98;100.00;100769.13;5018079;28;45403;-79
2021/07/04 10:48:32;;;;;;;;;0.00;0.00;;;;;30.36;100.00;100753.84;5018222;28;45403;-78
2021/07/04 10:51:18;;;;;;;;;0.00;0.00;;;;;31.66;100.00;100750.63;4971733;28;47162;-78
2021/07/04 10:53:54;;;;;;;;;0.00;0.00;;;;;33.70;100.00;100749.44;4973977;28;45379;-79
2021/07/04 10:56:34;;;;;;;;;0.00;0.00;;;;;33.71;100.00;100739.44;4973553;28;45422;-78
2021/07/04 10:59:20;;;;;;;;;0.00;0.00;;;;;32.34;100.00;100760.69;4973919;28;45451;-78
2021/07/04 11:01:49;;;;;;;;;0.00;0.00;;;;;32.99;100.00;100733.88;4972678;28;45413;-79
2021/07/04 11:04:37;;;;;;;;;0.00;0.00;;;;;33.52;100.00;100740.69;4965732;28;45909;-77
2021/07/04 11:07:04;;;;;;;;;0.00;0.00;;;;;32.54;100.00;100735.09;4965295;28;45299;-77
2021/07/04 11:09:55;;;;;;;;;0.00;0.00;;;;;31.66;100.00;100741.69;4974041;28;45367;-77
2021/07/04 11:12:34;;;;;;;;;0.00;0.00;;;;;30.67;100.00;100731.00;4973833;28;46483;-77
2021/07/04 11:15:12;;;;;;;;;0.50;0.25;;;;;29.92;100.00;100733.88;4956659;28;45427;-77